Time;durP1;ratioP1;P1;durP2;ratioP2;P2;SDS_P1;SDS_P2;PMS_P1;PMS_P2;Temp;Humidity;BMP_temperature;BMP_pressure;BME280_temperature;BME280_humidity;BME280_pressure;Samples;Min_cycle;Max_cycle;Signal;HPM_P1;HPM_P2
2023/09/07 00:02:16;;;;;;;0.10;0.10;;;;;;;;;;6203687;23;20020;-90
2023/09/07 00:04:43;;;;;;;0.30;0.30;;;;;;;;;;6204421;23;20020;-90
2023/09/07 00:07:09;;;;;;;0.20;0.20;;;;;;;;;;6203401;23;20012;-89
2023/09/07 00:09:35;;;;;;;0.20;0.20;;;;;;;;;;6203531;23;20012;-90
2023/09/07 00:12:01;;;;;;;0.30;0.30;;;;;;;;;;6204271;23;20027;-91
2023/09/07 00:14:27;;;;;;;0.10;0.10;;;;;;;;;;6205288;23;20006;-90
2023/09/07 00:16:53;;;;;;;0.10;0.10;;;;;;;;;;6204202;23;20047;-90
2023/09/07 00:19:19;;;;;;;0.10;0.10;;;;;;;;;;6202910;23;20027;-89
2023/09/07 00:21:45;;;;;;;0.10;0.10;;;;;;;;;;6201356;23;20012;-90
2023/09/07 00:24:11;;;;;;;0.30;0.30;;;;;;;;;;6228960;23;20102;-89
2023/09/07 00:26:37;;;;;;;0.20;0.20;;;;;;;;;;6202648;23;20023;-89
2023/09/07 00:29:03;;;;;;;0.10;0.10;;;;;;;;;;6202804;23;20012;-88
2023/09/07 00:31:29;;;;;;;0.10;0.10;;;;;;;;;;6227643;23;20031;-90
2023/09/07 00:33:55;;;;;;;0.13;0.13;;;;;;;;;;6203425;23;20443;-90
2023/09/07 00:36:21;;;;;;;0.20;0.20;;;;;;;;;;6202777;23;20103;-89
2023/09/07 00:38:47;;;;;;;0.10;0.10;;;;;;;;;;6202963;23;20157;-90
2023/09/07 00:41:14;;;;;;;0.10;0.10;;;;;;;;;;6204538;23;20351;-90
2023/09/07 00:43:40;;;;;;;0.10;0.10;;;;;;;;;;6204122;23;20570;-89
2023/09/07 00:46:07;;;;;;;0.10;0.10;;;;;;;;;;6203401;23;20016;-89
2023/09/07 00:48:33;;;;;;;0.10;0.10;;;;;;;;;;6203834;23;20084;-91
2023/09/07 00:51:00;;;;;;;0.20;0.20;;;;;;;;;;6202814;23;20032;-90
2023/09/07 00:53:27;;;;;;;0.20;0.20;;;;;;;;;;6227580;23;20016;-90
2023/09/07 00:55:54;;;;;;;0.22;0.22;;;;;;;;;;6203295;23;20023;-89
2023/09/07 00:58:21;;;;;;;0.10;0.10;;;;;;;;;;6202298;23;20024;-89
2023/09/07 01:00:47;;;;;;;0.03;0.03;;;;;;;;;;6202576;23;20019;-90
2023/09/07 01:03:14;;;;;;;0.10;0.10;;;;;;;;;;6228324;23;20044;-91
2023/09/07 01:05:58;;;;;;;0.20;0.20;;;;;;;;;;6202061;23;20020;-91
2023/09/07 01:08:27;;;;;;;0.00;0.00;;;;;;;;;;6228208;23;20016;-91
2023/09/07 01:10:53;;;;;;;0.10;0.10;;;;;;;;;;6203116;23;20017;-89
2023/09/07 01:13:20;;;;;;;0.10;0.10;;;;;;;;;;6202246;23;20036;-91
2023/09/07 01:15:46;;;;;;;0.10;0.10;;;;;;;;;;6205592;23;20020;-91
2023/09/07 01:18:12;;;;;;;0.08;0.08;;;;;;;;;;6205365;23;20020;-91
2023/09/07 01:20:41;;;;;;;0.10;0.10;;;;;;;;;;6205256;23;20350;-91
2023/09/07 01:23:07;;;;;;;0.10;0.10;;;;;;;;;;6228303;23;20046;-90
2023/09/07 01:25:35;;;;;;;0.10;0.10;;;;;;;;;;6203248;23;20415;-89
2023/09/07 01:28:01;;;;;;;0.10;0.10;;;;;;;;;;6204021;23;20074;-90
2023/09/07 01:30:28;;;;;;;0.10;0.10;;;;;;;;;;6203763;23;20022;-90
2023/09/07 01:32:54;;;;;;;0.10;0.10;;;;;;;;;;6204114;23;20035;-90
2023/09/07 01:35:21;;;;;;;0.10;0.10;;;;;;;;;;6205296;23;20016;-91
2023/09/07 01:37:48;;;;;;;0.10;0.10;;;;;;;;;;6205812;23;20435;-90
2023/09/07 01:40:14;;;;;;;0.25;0.25;;;;;;;;;;6204668;23;20408;-91
2023/09/07 01:42:41;;;;;;;0.20;0.20;;;;;;;;;;6206232;23;20324;-91
2023/09/07 01:45:07;;;;;;;0.22;0.22;;;;;;;;;;6229801;23;20011;-90
2023/09/07 01:47:33;;;;;;;0.30;0.30;;;;;;;;;;6204147;23;20023;-89
2023/09/07 01:49:59;;;;;;;0.10;0.10;;;;;;;;;;6204692;23;20058;-90
2023/09/07 01:52:25;;;;;;;0.20;0.20;;;;;;;;;;6203778;23;20020;-90
2023/09/07 01:54:51;;;;;;;0.10;0.10;;;;;;;;;;6205268;23;20046;-90
2023/09/07 01:57:17;;;;;;;0.08;0.08;;;;;;;;;;6205526;23;20012;-91
2023/09/07 01:59:43;;;;;;;0.10;0.10;;;;;;;;;;6205612;23;20026;-90
2023/09/07 02:02:09;;;;;;;0.10;0.10;;;;;;;;;;6202611;23;20016;-89
2023/09/07 02:04:35;;;;;;;0.00;0.00;;;;;;;;;;6203754;23;20020;-89
2023/09/07 02:07:01;;;;;;;0.10;0.10;;;;;;;;;;6203580;23;20016;-89
2023/09/07 02:09:27;;;;;;;0.10;0.10;;;;;;;;;;6204524;23;20100;-89
2023/09/07 02:11:53;;;;;;;0.20;0.20;;;;;;;;;;6205687;23;20017;-90
2023/09/07 02:14:19;;;;;;;0.10;0.10;;;;;;;;;;6204771;23;20035;-91
2023/09/07 02:16:45;;;;;;;0.20;0.20;;;;;;;;;;6204556;23;20020;-90
2023/09/07 02:19:11;;;;;;;0.00;0.00;;;;;;;;;;6204186;23;20039;-91
2023/09/07 02:21:37;;;;;;;0.10;0.10;;;;;;;;;;6204764;23;20024;-90
2023/09/07 02:24:03;;;;;;;0.10;0.10;;;;;;;;;;6230511;23;20015;-92
2023/09/07 02:26:29;;;;;;;0.00;0.00;;;;;;;;;;6204122;23;20016;-90
2023/09/07 02:28:55;;;;;;;0.20;0.20;;;;;;;;;;6203858;23;20321;-90
2023/09/07 02:31:21;;;;;;;0.20;0.20;;;;;;;;;;6205873;23;20459;-91
2023/09/07 02:33:47;;;;;;;0.22;0.22;;;;;;;;;;6204997;23;20032;-91
2023/09/07 02:36:13;;;;;;;0.10;0.10;;;;;;;;;;6205334;23;20024;-92
2023/09/07 02:38:39;;;;;;;0.10;0.10;;;;;;;;;;6206396;22;19996;-91
2023/09/07 02:41:06;;;;;;;0.00;0.00;;;;;;;;;;6203919;22;20016;-90
2023/09/07 02:43:32;;;;;;;0.10;0.10;;;;;;;;;;6202920;23;20012;-91
2023/09/07 02:45:58;;;;;;;0.00;0.00;;;;;;;;;;6203963;23;20019;-89
2023/09/07 02:48:25;;;;;;;0.17;0.17;;;;;;;;;;6203367;23;20016;-90
2023/09/07 02:50:51;;;;;;;0.17;0.17;;;;;;;;;;6204077;23;20023;-91
2023/09/07 02:53:17;;;;;;;0.20;0.20;;;;;;;;;;6204547;23;20024;-91
2023/09/07 02:55:43;;;;;;;0.10;0.10;;;;;;;;;;6229765;23;20012;-91
2023/09/07 02:58:09;;;;;;;0.10;0.10;;;;;;;;;;6204078;23;20078;-91
2023/09/07 03:00:35;;;;;;;0.10;0.10;;;;;;;;;;6205691;23;20023;-91
2023/09/07 03:03:03;;;;;;;0.10;0.10;;;;;;;;;;6204252;23;20066;-91
2023/09/07 03:05:29;;;;;;;0.10;0.10;;;;;;;;;;6204750;23;20039;-90
2023/09/07 03:07:55;;;;;;;0.10;0.10;;;;;;;;;;6203760;23;20024;-91
2023/09/07 03:10:21;;;;;;;0.00;0.00;;;;;;;;;;6205206;23;20366;-91
2023/09/07 03:12:47;;;;;;;0.22;0.22;;;;;;;;;;6204213;23;20011;-91
2023/09/07 03:15:13;;;;;;;0.20;0.20;;;;;;;;;;6204970;23;20026;-91
2023/09/07 03:17:39;;;;;;;0.20;0.20;;;;;;;;;;6206017;22;20016;-90
2023/09/07 03:20:13;;;;;;;0.20;0.20;;;;;;;;;;6204038;23;20057;-91
2023/09/07 03:22:40;;;;;;;0.10;0.10;;;;;;;;;;6203316;23;20007;-91
2023/09/07 03:25:07;;;;;;;0.10;0.10;;;;;;;;;;6230154;23;20077;-91
2023/09/07 03:27:35;;;;;;;0.10;0.10;;;;;;;;;;6204277;23;20022;-91
2023/09/07 03:30:01;;;;;;;0.22;0.22;;;;;;;;;;6204476;23;20054;-91
2023/09/07 03:32:31;;;;;;;0.10;0.10;;;;;;;;;;6228862;23;20027;-91
2023/09/07 03:34:57;;;;;;;0.10;0.10;;;;;;;;;;6229401;22;20537;-91
2023/09/07 03:37:23;;;;;;;0.20;0.20;;;;;;;;;;6229560;22;20032;-91
2023/09/07 03:39:50;;;;;;;0.15;0.15;;;;;;;;;;6204426;23;20020;-90
2023/09/07 03:42:16;;;;;;;0.20;0.20;;;;;;;;;;6204263;23;20027;-90
2023/09/07 03:44:42;;;;;;;0.17;0.17;;;;;;;;;;6204010;23;20016;-91
2023/09/07 03:47:08;;;;;;;0.10;0.10;;;;;;;;;;6203812;23;20020;-90
2023/09/07 03:49:35;;;;;;;0.30;0.30;;;;;;;;;;6203259;23;20043;-91
2023/09/07 03:52:01;;;;;;;0.20;0.20;;;;;;;;;;6203062;23;20430;-91
2023/09/07 03:54:27;;;;;;;0.20;0.20;;;;;;;;;;6203724;23;20020;-90
2023/09/07 03:56:53;;;;;;;0.20;0.20;;;;;;;;;;6204572;23;20004;-91
2023/09/07 03:59:19;;;;;;;0.20;0.20;;;;;;;;;;6204806;23;20016;-90
2023/09/07 04:01:45;;;;;;;0.30;0.30;;;;;;;;;;6203111;23;20031;-89
2023/09/07 04:04:11;;;;;;;0.20;0.20;;;;;;;;;;6202796;23;20004;-91
2023/09/07 04:06:37;;;;;;;0.10;0.10;;;;;;;;;;6204667;23;20004;-89
2023/09/07 04:09:03;;;;;;;0.20;0.20;;;;;;;;;;6202667;23;20059;-90
2023/09/07 04:11:29;;;;;;;0.32;0.32;;;;;;;;;;6202471;23;20031;-90
2023/09/07 04:13:55;;;;;;;0.20;0.20;;;;;;;;;;6202964;23;20024;-91
2023/09/07 04:16:21;;;;;;;0.20;0.20;;;;;;;;;;6204504;23;20034;-90
2023/09/07 04:18:47;;;;;;;0.10;0.10;;;;;;;;;;6203477;23;20051;-89
2023/09/07 04:21:14;;;;;;;0.20;0.20;;;;;;;;;;6203300;23;20354;-89
2023/09/07 04:23:40;;;;;;;0.10;0.10;;;;;;;;;;6203347;23;20074;-90
2023/09/07 04:26:10;;;;;;;0.17;0.17;;;;;;;;;;6229211;23;20051;-88
2023/09/07 04:28:36;;;;;;;0.20;0.20;;;;;;;;;;6228714;23;20056;-90
2023/09/07 04:31:02;;;;;;;0.22;0.22;;;;;;;;;;6229198;23;20580;-91
2023/09/07 04:33:30;;;;;;;0.30;0.30;;;;;;;;;;6227266;23;20026;-90
2023/09/07 04:35:56;;;;;;;0.15;0.15;;;;;;;;;;6179630;23;20052;-90
2023/09/07 04:38:22;;;;;;;0.10;0.10;;;;;;;;;;6202932;23;20066;-90
2023/09/07 04:40:48;;;;;;;0.30;0.30;;;;;;;;;;6202496;23;20020;-90
2023/09/07 04:43:14;;;;;;;0.15;0.15;;;;;;;;;;6203202;23;20000;-89
2023/09/07 04:45:47;;;;;;;0.15;0.15;;;;;;;;;;6203880;23;20046;-89
2023/09/07 04:48:13;;;;;;;0.20;0.20;;;;;;;;;;6202737;23;20023;-89
2023/09/07 04:50:39;;;;;;;0.17;0.17;;;;;;;;;;6227771;23;20008;-90
2023/09/07 04:53:05;;;;;;;0.10;0.10;;;;;;;;;;6226932;23;20012;-90
2023/09/07 04:55:31;;;;;;;0.10;0.10;;;;;;;;;;6202058;22;20068;-90
2023/09/07 04:57:57;;;;;;;0.20;0.20;;;;;;;;;;6226472;23;20064;-90
2023/09/07 05:00:23;;;;;;;0.20;0.20;;;;;;;;;;6202025;22;20012;-89
2023/09/07 05:02:49;;;;;;;0.10;0.10;;;;;;;;;;6199983;23;20020;-90
2023/09/07 05:05:15;;;;;;;0.15;0.15;;;;;;;;;;6200771;23;20016;-91
2023/09/07 05:07:41;;;;;;;0.13;0.13;;;;;;;;;;6201755;23;20381;-91
2023/09/07 05:10:08;;;;;;;0.20;0.20;;;;;;;;;;6202270;23;20355;-90
2023/09/07 05:12:34;;;;;;;0.10;0.10;;;;;;;;;;6202396;23;20012;-90
2023/09/07 05:15:01;;;;;;;0.20;0.20;;;;;;;;;;6226741;23;20024;-89
2023/09/07 05:17:27;;;;;;;0.20;0.20;;;;;;;;;;6201946;23;20096;-91
2023/09/07 05:19:53;;;;;;;0.10;0.10;;;;;;;;;;6202814;23;20027;-94
2023/09/07 05:22:25;;;;;;;0.10;0.10;;;;;;;;;;6203322;23;20358;-93
2023/09/07 05:24:51;;;;;;;0.20;0.20;;;;;;;;;;6203807;23;20501;-94
2023/09/07 05:27:17;;;;;;;0.20;0.20;;;;;;;;;;6203496;23;20020;-92
2023/09/07 05:29:43;;;;;;;0.00;0.00;;;;;;;;;;6227346;22;20086;-94
2023/09/07 05:32:10;;;;;;;0.10;0.10;;;;;;;;;;6202722;23;20072;-93
2023/09/07 05:34:36;;;;;;;0.20;0.20;;;;;;;;;;6203067;23;20100;-94
2023/09/07 05:37:02;;;;;;;0.20;0.20;;;;;;;;;;6203027;23;20004;-93
2023/09/07 05:39:28;;;;;;;0.15;0.15;;;;;;;;;;6203004;23;20031;-94
2023/09/07 05:41:54;;;;;;;0.13;0.13;;;;;;;;;;6201826;23;20031;-90
2023/09/07 05:44:20;;;;;;;0.10;0.10;;;;;;;;;;6201311;23;20109;-93
2023/09/07 05:46:47;;;;;;;0.13;0.13;;;;;;;;;;6201042;23;20455;-95
2023/09/07 05:49:13;;;;;;;0.10;0.10;;;;;;;;;;6202080;23;20024;-94
2023/09/07 05:51:39;;;;;;;0.00;0.00;;;;;;;;;;6201584;23;20028;-95
2023/09/07 05:54:05;;;;;;;0.10;0.10;;;;;;;;;;6202581;23;20024;-94
2023/09/07 05:56:33;;;;;;;0.13;0.13;;;;;;;;;;6202233;23;20020;-92
2023/09/07 05:58:59;;;;;;;0.10;0.10;;;;;;;;;;6202232;23;20020;-94
2023/09/07 06:01:25;;;;;;;0.20;0.20;;;;;;;;;;6203889;23;20016;-94
2023/09/07 06:03:51;;;;;;;0.20;0.20;;;;;;;;;;6204345;23;20034;-94
2023/09/07 06:06:17;;;;;;;0.08;0.08;;;;;;;;;;6203023;23;20388;-95
2023/09/07 06:08:43;;;;;;;0.20;0.20;;;;;;;;;;6203721;23;20023;-94
2023/09/07 06:11:09;;;;;;;0.20;0.20;;;;;;;;;;6204405;23;20012;-94
2023/09/07 06:13:35;;;;;;;0.10;0.10;;;;;;;;;;6203227;23;20031;-95
2023/09/07 06:16:01;;;;;;;0.10;0.10;;;;;;;;;;6203819;23;20461;-93
2023/09/07 06:18:28;;;;;;;0.10;0.10;;;;;;;;;;6203201;22;20016;-91
2023/09/07 06:20:54;;;;;;;0.20;0.20;;;;;;;;;;6203766;23;20012;-90
2023/09/07 06:23:20;;;;;;;0.10;0.10;;;;;;;;;;6227317;23;20332;-88
2023/09/07 06:25:46;;;;;;;0.20;0.20;;;;;;;;;;6199938;23;20446;-93
2023/09/07 06:28:13;;;;;;;0.10;0.10;;;;;;;;;;6205119;23;20042;-92
2023/09/07 06:30:39;;;;;;;0.10;0.10;;;;;;;;;;6206003;23;20024;-91
2023/09/07 06:33:05;;;;;;;0.20;0.20;;;;;;;;;;6205114;23;20020;-92
2023/09/07 06:35:31;;;;;;;0.10;0.10;;;;;;;;;;6229152;23;20117;-94
2023/09/07 06:37:57;;;;;;;0.10;0.10;;;;;;;;;;6202351;23;20094;-89
2023/09/07 06:40:25;;;;;;;0.30;0.30;;;;;;;;;;6203778;23;20042;-90
2023/09/07 06:42:51;;;;;;;0.10;0.10;;;;;;;;;;6202677;23;20016;-90
2023/09/07 06:45:17;;;;;;;0.10;0.10;;;;;;;;;;6202041;23;20031;-90
2023/09/07 06:47:43;;;;;;;0.10;0.10;;;;;;;;;;6203896;23;20016;-90
2023/09/07 06:50:10;;;;;;;0.20;0.20;;;;;;;;;;6228290;23;20019;-90
2023/09/07 06:52:36;;;;;;;0.03;0.03;;;;;;;;;;6203148;23;20016;-88
2023/09/07 06:55:02;;;;;;;0.20;0.20;;;;;;;;;;6204502;23;20100;-89
2023/09/07 06:57:28;;;;;;;0.10;0.10;;;;;;;;;;6204503;23;20064;-89
2023/09/07 06:59:54;;;;;;;0.15;0.15;;;;;;;;;;6228550;22;20028;-89
2023/09/07 07:02:20;;;;;;;0.10;0.10;;;;;;;;;;6227881;23;20016;-90
2023/09/07 07:04:46;;;;;;;0.20;0.20;;;;;;;;;;6203246;23;20016;-91
2023/09/07 07:07:12;;;;;;;0.25;0.25;;;;;;;;;;6204344;23;20027;-89
2023/09/07 07:09:41;;;;;;;0.17;0.17;;;;;;;;;;6256990;23;20019;-94
2023/09/07 07:12:07;;;;;;;0.10;0.10;;;;;;;;;;6206596;23;20055;-94
2023/09/07 07:14:33;;;;;;;0.15;0.15;;;;;;;;;;6207437;23;20023;-92
2023/09/07 07:17:01;;;;;;;0.10;0.10;;;;;;;;;;6204275;23;20019;-92
2023/09/07 07:19:28;;;;;;;0.00;0.00;;;;;;;;;;6228962;23;20044;-91
2023/09/07 07:21:54;;;;;;;0.20;0.20;;;;;;;;;;6203883;23;20016;-91
2023/09/07 07:24:36;;;;;;;0.20;0.20;;;;;;;;;;6220558;23;20047;-94
2023/09/07 07:27:04;;;;;;;0.10;0.10;;;;;;;;;;6266390;22;20024;-95
2023/09/07 07:29:30;;;;;;;0.00;0.00;;;;;;;;;;6232862;23;20123;-91
2023/09/07 07:32:02;;;;;;;0.20;0.20;;;;;;;;;;6211510;23;20336;-95
2023/09/07 07:39:41;;;;;;;0.22;0.22;;;;;;;;;;6290115;22;20613;-92
2023/09/07 07:42:07;;;;;;;0.10;0.10;;;;;;;;;;6241249;22;20030;-95
2023/09/07 07:44:33;;;;;;;0.20;0.20;;;;;;;;;;6238201;22;20011;-93
2023/09/07 07:46:59;;;;;;;0.20;0.20;;;;;;;;;;6234496;22;20007;-93
2023/09/07 07:49:25;;;;;;;0.10;0.10;;;;;;;;;;6237552;22;20007;-92
2023/09/07 07:51:54;;;;;;;0.10;0.10;;;;;;;;;;6259062;22;20008;-90
2023/09/07 07:54:22;;;;;;;0.10;0.10;;;;;;;;;;6236681;22;20447;-92
2023/09/07 07:56:48;;;;;;;0.10;0.10;;;;;;;;;;6234981;22;20012;-93
2023/09/07 07:59:15;;;;;;;0.10;0.10;;;;;;;;;;6239180;22;20008;-94
2023/09/07 08:01:41;;;;;;;0.60;0.55;;;;;;;;;;6237222;22;20066;-92
2023/09/07 08:04:09;;;;;;;0.00;0.00;;;;;;;;;;6234639;22;20023;-92
2023/09/07 08:06:35;;;;;;;0.10;0.10;;;;;;;;;;6233928;22;20069;-93
2023/09/07 08:09:01;;;;;;;0.25;0.25;;;;;;;;;;6235169;22;20019;-93
2023/09/07 08:11:27;;;;;;;0.10;0.10;;;;;;;;;;6236535;22;20027;-94
2023/09/07 08:13:53;;;;;;;0.10;0.10;;;;;;;;;;6235967;22;20023;-93
2023/09/07 08:16:19;;;;;;;0.20;0.20;;;;;;;;;;6238600;22;20141;-94
2023/09/07 08:18:45;;;;;;;0.10;0.10;;;;;;;;;;6236213;22;20369;-94
2023/09/07 08:21:12;;;;;;;0.20;0.20;;;;;;;;;;6234797;22;20058;-91
2023/09/07 08:23:38;;;;;;;0.10;0.10;;;;;;;;;;6235691;22;20019;-94
2023/09/07 08:26:05;;;;;;;0.03;0.03;;;;;;;;;;6244362;22;20031;-93
2023/09/07 08:28:31;;;;;;;0.10;0.10;;;;;;;;;;6236856;22;20007;-95
2023/09/07 08:30:59;;;;;;;0.20;0.20;;;;;;;;;;6245321;22;20008;-92
2023/09/07 08:33:28;;;;;;;0.17;0.17;;;;;;;;;;6234683;22;20025;-90
2023/09/07 08:35:56;;;;;;;0.10;0.10;;;;;;;;;;6235993;22;20020;-92
2023/09/07 08:38:25;;;;;;;0.10;0.10;;;;;;;;;;6232146;22;20016;-91
2023/09/07 08:40:52;;;;;;;0.10;0.10;;;;;;;;;;6233239;22;20049;-90
2023/09/07 08:43:20;;;;;;;0.10;0.10;;;;;;;;;;6232220;22;20011;-92
2023/09/07 08:45:49;;;;;;;0.15;0.15;;;;;;;;;;6234235;22;20020;-92
2023/09/07 08:48:31;;;;;;;0.00;0.00;;;;;;;;;;6234731;22;20024;-93
2023/09/07 08:50:57;;;;;;;0.00;0.00;;;;;;;;;;6234942;22;20026;-92
2023/09/07 08:53:24;;;;;;;0.10;0.10;;;;;;;;;;6233923;22;20068;-92
2023/09/07 08:55:50;;;;;;;0.10;0.10;;;;;;;;;;6242099;22;20071;-95
2023/09/07 08:58:16;;;;;;;0.00;0.00;;;;;;;;;;6241879;22;20039;-93
2023/09/07 09:00:43;;;;;;;0.03;0.03;;;;;;;;;;6239156;22;20024;-94
2023/09/07 09:03:10;;;;;;;0.00;0.00;;;;;;;;;;6259311;22;20039;-93
2023/09/07 09:05:39;;;;;;;0.10;0.10;;;;;;;;;;6234313;22;20024;-92
2023/09/07 09:08:06;;;;;;;0.10;0.10;;;;;;;;;;6233723;22;20103;-92
2023/09/07 09:10:32;;;;;;;0.15;0.15;;;;;;;;;;6234122;22;20020;-91
2023/09/07 09:13:01;;;;;;;0.00;0.00;;;;;;;;;;6234301;22;20027;-94
2023/09/07 09:15:27;;;;;;;0.10;0.10;;;;;;;;;;6233417;22;20074;-92
2023/09/07 09:17:53;;;;;;;0.00;0.00;;;;;;;;;;6233373;22;20016;-92
2023/09/07 09:20:21;;;;;;;0.00;0.00;;;;;;;;;;6232441;22;20011;-91
2023/09/07 09:22:47;;;;;;;0.10;0.10;;;;;;;;;;6257337;22;20049;-94
2023/09/07 09:25:13;;;;;;;0.10;0.10;;;;;;;;;;6232581;22;20020;-93
2023/09/07 09:27:39;;;;;;;0.10;0.10;;;;;;;;;;6232044;22;20107;-92
2023/09/07 09:30:05;;;;;;;0.00;0.00;;;;;;;;;;6233506;22;20019;-93
2023/09/07 09:32:31;;;;;;;0.20;0.20;;;;;;;;;;6233662;22;20024;-93
2023/09/07 09:34:57;;;;;;;0.20;0.20;;;;;;;;;;6234202;22;20020;-94
2023/09/07 09:37:24;;;;;;;0.10;0.10;;;;;;;;;;6235942;22;20030;-93
2023/09/07 09:39:51;;;;;;;0.10;0.10;;;;;;;;;;6235982;22;20006;-94
2023/09/07 09:42:17;;;;;;;0.10;0.10;;;;;;;;;;6235885;22;20019;-93
2023/09/07 09:44:49;;;;;;;0.10;0.10;;;;;;;;;;6237303;22;20033;-93
2023/09/07 09:47:19;;;;;;;0.17;0.17;;;;;;;;;;6236874;22;20098;-91
2023/09/07 09:49:46;;;;;;;0.17;0.17;;;;;;;;;;6235096;22;20067;-92
2023/09/07 09:52:12;;;;;;;0.00;0.00;;;;;;;;;;6235642;22;20145;-93
2023/09/07 09:54:38;;;;;;;0.20;0.20;;;;;;;;;;6235166;22;20090;-94
2023/09/07 09:57:05;;;;;;;0.10;0.10;;;;;;;;;;6233999;22;20020;-93
2023/09/07 09:59:31;;;;;;;0.20;0.20;;;;;;;;;;6234702;22;20023;-91
2023/09/07 10:01:57;;;;;;;1.38;1.27;;;;;;;;;;6235001;22;20027;-94
2023/09/07 10:04:24;;;;;;;0.10;0.10;;;;;;;;;;6237312;22;20071;-94
2023/09/07 10:06:51;;;;;;;0.00;0.00;;;;;;;;;;6261396;22;20034;-91
2023/09/07 10:09:19;;;;;;;0.10;0.10;;;;;;;;;;6260471;22;20020;-91
2023/09/07 10:11:51;;;;;;;0.00;0.00;;;;;;;;;;6233381;22;20069;-91
2023/09/07 10:14:17;;;;;;;0.03;0.03;;;;;;;;;;6233676;22;20102;-93
2023/09/07 10:16:43;;;;;;;0.15;0.15;;;;;;;;;;6234845;22;20737;-94
2023/09/07 10:19:16;;;;;;;0.20;0.20;;;;;;;;;;6235015;22;20020;-93
2023/09/07 10:21:42;;;;;;;0.00;0.00;;;;;;;;;;6235155;22;20023;-94
2023/09/07 10:24:08;;;;;;;0.03;0.03;;;;;;;;;;6236038;22;20355;-89
2023/09/07 10:26:34;;;;;;;0.10;0.10;;;;;;;;;;6234105;22;20094;-91
2023/09/07 10:29:03;;;;;;;0.10;0.10;;;;;;;;;;6234464;22;20039;-91
2023/09/07 10:31:30;;;;;;;0.10;0.10;;;;;;;;;;6233900;22;20020;-92
2023/09/07 10:33:56;;;;;;;0.10;0.10;;;;;;;;;;6234616;22;20043;-89
2023/09/07 10:36:23;;;;;;;0.10;0.10;;;;;;;;;;6259447;22;20019;-91
2023/09/07 10:38:49;;;;;;;0.10;0.10;;;;;;;;;;6233962;22;20016;-91
2023/09/07 10:41:15;;;;;;;0.00;0.00;;;;;;;;;;6235012;22;20023;-91
2023/09/07 10:44:08;;;;;;;0.10;0.10;;;;;;;;;;6259085;22;20019;-92
2023/09/07 10:46:34;;;;;;;0.10;0.10;;;;;;;;;;6227897;22;20012;-91
2023/09/07 10:49:00;;;;;;;0.20;0.20;;;;;;;;;;6234252;22;20077;-91
2023/09/07 10:51:26;;;;;;;0.20;0.20;;;;;;;;;;6233092;22;20149;-91
2023/09/07 10:53:55;;;;;;;0.20;0.20;;;;;;;;;;6233786;22;20020;-93
2023/09/07 10:56:25;;;;;;;0.10;0.10;;;;;;;;;;6236149;22;20074;-92
2023/09/07 10:58:54;;;;;;;0.00;0.00;;;;;;;;;;6232918;22;20000;-91
2023/09/07 11:01:20;;;;;;;0.00;0.00;;;;;;;;;;6232814;22;20015;-91
2023/09/07 11:03:46;;;;;;;0.10;0.10;;;;;;;;;;6234472;22;20045;-91
2023/09/07 11:06:17;;;;;;;0.10;0.10;;;;;;;;;;6231636;22;20094;-91
2023/09/07 11:08:43;;;;;;;0.10;0.10;;;;;;;;;;6230300;22;20440;-89
2023/09/07 11:11:09;;;;;;;0.10;0.10;;;;;;;;;;6230988;22;20081;-90
2023/09/07 11:13:35;;;;;;;0.10;0.10;;;;;;;;;;6233363;22;20091;-91
2023/09/07 11:16:02;;;;;;;0.10;0.10;;;;;;;;;;6234273;22;20389;-92
2023/09/07 11:18:28;;;;;;;0.10;0.10;;;;;;;;;;6234243;22;20071;-92
2023/09/07 11:20:54;;;;;;;0.10;0.10;;;;;;;;;;6233379;22;20071;-93
2023/09/07 11:23:22;;;;;;;0.10;0.10;;;;;;;;;;6233104;22;20024;-92
2023/09/07 11:25:49;;;;;;;0.00;0.00;;;;;;;;;;6234032;22;20098;-92
2023/09/07 11:28:17;;;;;;;0.10;0.10;;;;;;;;;;6233888;22;20015;-92
2023/09/07 11:30:54;;;;;;;0.10;0.10;;;;;;;;;;6234865;22;20016;-91
2023/09/07 11:33:21;;;;;;;0.10;0.10;;;;;;;;;;6233832;22;20019;-93
2023/09/07 11:36:01;;;;;;;0.05;0.05;;;;;;;;;;6232917;22;20020;-91
2023/09/07 11:38:35;;;;;;;0.10;0.10;;;;;;;;;;6232892;22;20027;-92
2023/09/07 11:41:01;;;;;;;0.10;0.10;;;;;;;;;;6233381;22;20019;-90
2023/09/07 11:43:27;;;;;;;0.00;0.00;;;;;;;;;;6231940;22;20023;-89
2023/09/07 11:45:53;;;;;;;0.00;0.00;;;;;;;;;;6232398;22;20443;-91
2023/09/07 11:48:19;;;;;;;0.10;0.10;;;;;;;;;;6258764;22;20012;-91
2023/09/07 11:50:45;;;;;;;0.10;0.10;;;;;;;;;;6232521;22;20051;-92
2023/09/07 11:53:11;;;;;;;0.10;0.10;;;;;;;;;;6233114;22;20038;-91
2023/09/07 11:55:43;;;;;;;0.20;0.20;;;;;;;;;;6259763;22;20081;-91
2023/09/07 11:58:09;;;;;;;0.10;0.10;;;;;;;;;;6231381;22;20023;-92
2023/09/07 12:00:35;;;;;;;0.13;0.13;;;;;;;;;;6232672;22;20023;-93
2023/09/07 12:03:01;;;;;;;0.00;0.00;;;;;;;;;;6233086;22;20355;-92
2023/09/07 12:05:27;;;;;;;0.10;0.10;;;;;;;;;;6233461;22;20016;-91
2023/09/07 12:07:53;;;;;;;0.05;0.05;;;;;;;;;;6233468;22;20395;-92
2023/09/07 12:10:19;;;;;;;0.10;0.10;;;;;;;;;;6232756;22;20150;-91
2023/09/07 12:12:45;;;;;;;0.10;0.10;;;;;;;;;;6231640;22;20018;-88
2023/09/07 12:15:11;;;;;;;0.03;0.03;;;;;;;;;;6231943;22;20016;-87
2023/09/07 12:17:38;;;;;;;0.00;0.00;;;;;;;;;;6230732;22;20524;-87
2023/09/07 12:20:09;;;;;;;0.00;0.00;;;;;;;;;;6231561;22;20098;-88
2023/09/07 12:22:37;;;;;;;0.13;0.13;;;;;;;;;;6230411;22;20016;-87
2023/09/07 12:25:06;;;;;;;0.10;0.10;;;;;;;;;;6229302;22;20020;-88
2023/09/07 12:27:33;;;;;;;0.20;0.20;;;;;;;;;;6230624;22;20016;-88
2023/09/07 12:29:59;;;;;;;0.10;0.10;;;;;;;;;;6231112;22;20019;-87
2023/09/07 12:32:33;;;;;;;0.10;0.10;;;;;;;;;;6230767;22;20031;-87
2023/09/07 12:34:59;;;;;;;0.52;0.52;;;;;;;;;;6230427;22;20102;-86
2023/09/07 12:37:25;;;;;;;0.00;0.00;;;;;;;;;;6231775;22;20090;-85
2023/09/07 12:39:51;;;;;;;0.10;0.10;;;;;;;;;;6229985;22;20023;-86
2023/09/07 12:45:24;;;;;;;0.10;0.10;;;;;;;;;;6255601;22;20024;-87
2023/09/07 12:47:50;;;;;;;0.20;0.20;;;;;;;;;;6229263;22;20016;-87
2023/09/07 12:50:31;;;;;;;0.20;0.20;;;;;;;;;;6229089;22;20011;-85
2023/09/07 12:52:57;;;;;;;0.20;0.20;;;;;;;;;;6255417;22;20041;-86
2023/09/07 12:55:40;;;;;;;0.00;0.00;;;;;;;;;;6231130;22;20118;-87
2023/09/07 12:58:06;;;;;;;0.10;0.10;;;;;;;;;;6231328;22;20046;-87
2023/09/07 13:00:32;;;;;;;0.20;0.20;;;;;;;;;;6256492;22;20349;-86
2023/09/07 13:02:58;;;;;;;0.10;0.10;;;;;;;;;;6229546;22;20020;-88
2023/09/07 13:05:24;;;;;;;0.00;0.00;;;;;;;;;;6228816;22;20020;-87
2023/09/07 13:07:52;;;;;;;0.00;0.00;;;;;;;;;;6228897;22;20011;-87
2023/09/07 13:10:18;;;;;;;0.00;0.00;;;;;;;;;;6231567;22;20008;-87
2023/09/07 13:12:44;;;;;;;0.10;0.10;;;;;;;;;;6231376;22;20066;-87
2023/09/07 13:15:10;;;;;;;0.10;0.10;;;;;;;;;;6230912;22;20421;-87
2023/09/07 13:17:37;;;;;;;0.00;0.00;;;;;;;;;;6232625;22;20442;-85
2023/09/07 13:20:03;;;;;;;0.00;0.00;;;;;;;;;;6257269;22;20021;-89
2023/09/07 13:22:29;;;;;;;0.08;0.08;;;;;;;;;;6231703;22;20115;-89
2023/09/07 13:24:55;;;;;;;0.10;0.10;;;;;;;;;;6232456;22;20024;-89
2023/09/07 13:27:21;;;;;;;0.00;0.00;;;;;;;;;;6233252;22;20015;-89
2023/09/07 13:29:47;;;;;;;0.03;0.03;;;;;;;;;;6232991;22;20026;-89
2023/09/07 13:32:13;;;;;;;0.10;0.10;;;;;;;;;;6232088;22;20019;-89
2023/09/07 13:34:39;;;;;;;0.17;0.17;;;;;;;;;;6232931;22;20020;-90
2023/09/07 13:37:05;;;;;;;0.10;0.10;;;;;;;;;;6232489;22;20015;-88
2023/09/07 13:39:31;;;;;;;0.00;0.00;;;;;;;;;;6231997;22;20380;-88
2023/09/07 13:41:57;;;;;;;0.20;0.20;;;;;;;;;;6229879;22;20067;-88
2023/09/07 13:44:23;;;;;;;0.10;0.10;;;;;;;;;;6230823;22;20047;-86
2023/09/07 13:46:49;;;;;;;0.08;0.08;;;;;;;;;;6231212;22;20020;-87
2023/09/07 13:49:15;;;;;;;0.00;0.00;;;;;;;;;;6231346;22;20016;-87
2023/09/07 13:51:41;;;;;;;0.00;0.00;;;;;;;;;;6231062;22;20015;-87
2023/09/07 13:54:08;;;;;;;0.10;0.10;;;;;;;;;;6256898;22;20015;-87
2023/09/07 13:56:36;;;;;;;0.10;0.10;;;;;;;;;;6232118;22;20050;-90
2023/09/07 13:59:02;;;;;;;0.00;0.00;;;;;;;;;;6231873;22;20039;-90
2023/09/07 14:01:28;;;;;;;0.10;0.10;;;;;;;;;;6231586;22;20085;-89
2023/09/07 14:03:54;;;;;;;0.10;0.10;;;;;;;;;;6257539;22;20447;-90
2023/09/07 14:06:23;;;;;;;0.10;0.10;;;;;;;;;;6233149;22;20103;-90
2023/09/07 14:08:51;;;;;;;0.10;0.10;;;;;;;;;;6232384;22;20328;-89
2023/09/07 14:11:17;;;;;;;0.00;0.00;;;;;;;;;;6231585;22;20012;-90
2023/09/07 14:13:43;;;;;;;0.00;0.00;;;;;;;;;;6231908;22;20434;-90
2023/09/07 14:16:11;;;;;;;0.10;0.10;;;;;;;;;;6233547;22;20016;-89
2023/09/07 14:18:37;;;;;;;0.15;0.15;;;;;;;;;;6233567;22;20057;-91
2023/09/07 14:21:04;;;;;;;0.10;0.10;;;;;;;;;;6231816;22;20035;-88
2023/09/07 14:23:30;;;;;;;0.10;0.10;;;;;;;;;;6231238;22;20019;-89
2023/09/07 14:25:56;;;;;;;0.00;0.00;;;;;;;;;;6231096;22;20443;-89
2023/09/07 14:28:25;;;;;;;0.10;0.10;;;;;;;;;;6231567;22;20018;-90
2023/09/07 14:30:53;;;;;;;0.05;0.05;;;;;;;;;;6232391;22;20015;-90
2023/09/07 14:33:20;;;;;;;0.08;0.08;;;;;;;;;;6231313;22;20091;-90
2023/09/07 14:35:46;;;;;;;0.10;0.10;;;;;;;;;;6232554;22;20016;-89
2023/09/07 14:38:13;;;;;;;0.20;0.20;;;;;;;;;;6233708;22;20043;-89
2023/09/07 14:40:38;;;;;;;0.08;0.08;;;;;;;;;;6233472;22;20020;-90
2023/09/07 14:43:05;;;;;;;0.00;0.00;;;;;;;;;;6232584;22;20350;-89
2023/09/07 14:45:39;;;;;;;0.00;0.00;;;;;;;;;;6231118;22;20091;-89
2023/09/07 14:48:06;;;;;;;0.00;0.00;;;;;;;;;;6256196;22;20015;-89
2023/09/07 14:50:32;;;;;;;0.00;0.00;;;;;;;;;;6257204;22;20015;-89